createdAt,value
2019-04-30T00:03:15.956Z,47.07
2019-04-30T00:08:16.133Z,47.13
2019-04-30T00:13:20.706Z,47.00
2019-04-30T00:18:17.683Z,46.90
2019-04-30T00:23:22.435Z,46.73
2019-04-30T00:28:18.539Z,47.24
2019-04-30T00:33:22.244Z,46.94
2019-04-30T00:38:19.864Z,46.73
2019-04-30T00:43:20.284Z,46.92
2019-04-30T00:48:29.517Z,46.83
2019-04-30T00:53:21.204Z,46.72
2019-04-30T00:58:29.034Z,46.61
2019-04-30T01:03:22.256Z,46.94
2019-04-30T01:08:25.342Z,46.92
2019-04-30T01:13:23.180Z,46.98
2019-04-30T01:18:27.651Z,47.05
2019-04-30T01:23:24.061Z,46.94
2019-04-30T01:28:24.722Z,47.09
2019-04-30T01:33:28.432Z,46.96
2019-04-30T01:38:25.613Z,47.16
2019-04-30T01:43:31.432Z,46.66
2019-04-30T01:48:26.467Z,46.71
2019-04-30T01:53:28.524Z,46.85
2019-04-30T01:58:29.998Z,47.01
2019-04-30T02:03:29.227Z,47.05
2019-04-30T02:08:29.918Z,47.18
2019-04-30T02:13:34.190Z,46.84
2019-04-30T02:18:31.002Z,47.06
2019-04-30T02:23:31.607Z,46.96
2019-04-30T02:28:32.073Z,47.21
2019-04-30T02:33:32.710Z,47.04
2019-04-30T02:38:33.387Z,47.13
2019-04-30T02:43:33.993Z,46.96
2019-04-30T02:48:35.005Z,46.98
2019-04-30T02:53:35.717Z,46.94
2019-04-30T02:58:36.156Z,47.09
2019-04-30T03:03:39.272Z,47.18
2019-04-30T03:08:37.236Z,47.11
2019-04-30T03:13:40.531Z,47.04
2019-04-30T03:18:39.608Z,47.23
2019-04-30T03:23:40.428Z,47.12
2019-04-30T03:28:41.071Z,47.16
2019-04-30T03:33:42.672Z,47.24
2019-04-30T03:38:43.623Z,47.36
2019-04-30T03:43:44.274Z,47.27
2019-04-30T03:48:44.919Z,47.24
2019-04-30T03:53:45.772Z,47.30
2019-04-30T03:58:46.225Z,47.16
2019-04-30T04:03:46.865Z,47.32
2019-04-30T04:08:49.071Z,47.16
2019-04-30T04:13:49.558Z,47.29
2019-04-30T04:18:50.156Z,47.38
2019-04-30T04:23:49.415Z,47.48
2019-04-30T04:28:50.311Z,47.44
2019-04-30T04:33:52.800Z,47.47
2019-04-30T04:38:51.934Z,47.67
2019-04-30T04:43:52.884Z,47.68
2019-04-30T04:48:53.724Z,47.82
2019-04-30T04:53:54.374Z,47.85
2019-04-30T04:58:54.815Z,47.58
2019-04-30T05:03:55.479Z,48.03
2019-04-30T05:08:56.105Z,47.77
2019-04-30T05:13:56.759Z,48.00
2019-04-30T05:18:58.628Z,47.88
2019-04-30T05:23:59.067Z,47.98
2019-04-30T05:28:59.458Z,47.96
2019-04-30T05:33:58.737Z,47.66
2019-04-30T05:38:59.400Z,48.06
2019-04-30T05:43:59.856Z,47.74
2019-04-30T05:49:00.285Z,48.09
2019-04-30T05:54:00.737Z,48.05
2019-04-30T05:59:01.377Z,48.02
2019-04-30T06:04:01.799Z,48.21
2019-04-30T06:09:06.775Z,47.85
2019-04-30T06:14:02.699Z,47.96
2019-04-30T06:19:03.157Z,48.09
2019-04-30T06:24:03.604Z,48.27
2019-04-30T06:29:04.011Z,47.88
2019-04-30T06:34:04.481Z,47.92
2019-04-30T06:39:04.938Z,47.79
2019-04-30T06:44:05.391Z,47.65
2019-04-30T06:49:05.994Z,47.89
2019-04-30T06:54:06.426Z,48.17
2019-04-30T06:59:06.908Z,47.92
2019-04-30T07:04:07.368Z,47.76
2019-04-30T07:09:08.874Z,47.85
2019-04-30T07:14:09.641Z,48.12
2019-04-30T07:19:10.317Z,47.73
2019-04-30T07:24:10.733Z,47.81
2019-04-30T07:29:11.209Z,47.76
2019-04-30T07:34:11.661Z,47.80
2019-04-30T07:39:12.069Z,47.43
2019-04-30T07:44:29.447Z,47.93
2019-04-30T07:49:12.997Z,47.69
2019-04-30T07:54:13.639Z,47.53
2019-04-30T07:59:14.055Z,47.68
2019-04-30T08:04:14.532Z,47.55
2019-04-30T08:09:14.953Z,47.56
2019-04-30T08:14:15.377Z,47.45
2019-04-30T08:19:15.843Z,47.58
2019-04-30T08:24:16.277Z,47.67
2019-04-30T08:29:17.262Z,47.44
2019-04-30T08:34:19.965Z,47.40
2019-04-30T08:39:19.724Z,47.46
2019-04-30T08:44:21.216Z,47.43
2019-04-30T08:49:22.244Z,47.46
2019-04-30T08:54:22.827Z,47.22
2019-04-30T08:59:23.291Z,47.21
2019-04-30T09:04:23.856Z,47.22
2019-04-30T09:09:24.385Z,47.27
2019-04-30T09:14:24.819Z,47.02
2019-04-30T09:19:25.273Z,47.25
2019-04-30T09:24:25.744Z,47.48
2019-04-30T09:29:26.149Z,47.33
2019-04-30T09:34:28.465Z,47.33
2019-04-30T09:39:29.383Z,47.21
2019-04-30T09:44:30.536Z,47.09
2019-04-30T09:49:29.529Z,47.14
2019-04-30T09:54:30.680Z,47.34
2019-04-30T09:59:31.687Z,46.92
2019-04-30T10:04:32.660Z,47.10
2019-04-30T10:09:33.772Z,47.22
2019-04-30T10:14:34.466Z,47.25
2019-04-30T10:19:35.102Z,47.07
2019-04-30T10:24:35.773Z,47.26
2019-04-30T10:29:36.413Z,47.43
2019-04-30T10:34:37.051Z,47.24
2019-04-30T10:39:38.934Z,47.78
2019-04-30T10:44:37.950Z,47.70
2019-04-30T10:49:39.017Z,47.61
2019-04-30T10:54:39.859Z,47.74
2019-04-30T10:59:40.293Z,48.08
2019-04-30T11:04:40.701Z,48.21
2019-04-30T11:09:41.169Z,47.99
2019-04-30T11:14:41.802Z,48.08
2019-04-30T11:19:42.604Z,47.98
2019-04-30T11:24:56.618Z,48.15
2019-04-30T11:29:44.359Z,48.20
2019-04-30T11:34:45.367Z,47.99
2019-04-30T11:39:46.069Z,48.57
2019-04-30T11:44:48.361Z,48.38
2019-04-30T11:49:47.413Z,48.69
2019-04-30T11:54:51.336Z,48.58
2019-04-30T11:59:48.501Z,48.72
2019-04-30T12:04:49.521Z,48.64
2019-04-30T12:09:50.150Z,48.86
2019-04-30T12:14:50.654Z,48.73
2019-04-30T12:19:51.299Z,48.86
2019-04-30T12:25:02.236Z,48.73
2019-04-30T12:29:52.171Z,48.42
2019-04-30T12:34:52.961Z,48.19
2019-04-30T12:39:53.480Z,48.36
2019-04-30T12:44:53.911Z,48.26
2019-04-30T12:49:54.374Z,48.56
2019-04-30T12:54:55.209Z,48.31
2019-04-30T12:59:56.043Z,48.37
2019-04-30T13:05:00.290Z,48.43
2019-04-30T13:09:57.212Z,48.60
2019-04-30T13:14:58.334Z,48.65
2019-04-30T13:19:58.839Z,48.59
2019-04-30T13:24:59.712Z,48.23
2019-04-30T13:30:00.535Z,48.69
2019-04-30T13:35:01.117Z,49.02
2019-04-30T13:40:01.874Z,48.75
2019-04-30T13:45:02.270Z,48.84
2019-04-30T13:50:02.724Z,48.73
2019-04-30T13:55:03.407Z,48.92
2019-04-30T14:00:04.172Z,48.97
2019-04-30T14:05:05.106Z,48.66
2019-04-30T14:10:05.724Z,47.28
2019-04-30T14:15:06.198Z,46.42
2019-04-30T14:20:06.818Z,45.11
2019-04-30T14:25:07.478Z,44.88
2019-04-30T14:30:09.288Z,45.02
2019-04-30T14:35:09.809Z,44.49
2019-04-30T14:40:12.794Z,44.36
2019-04-30T14:45:12.562Z,44.82
2019-04-30T14:50:14.516Z,44.87
2019-04-30T14:55:15.069Z,43.99
2019-04-30T15:00:15.837Z,44.18
2019-04-30T15:05:16.390Z,44.63
2019-04-30T15:10:17.105Z,43.95
2019-04-30T15:15:19.196Z,43.62
2019-04-30T15:20:19.692Z,44.50
2019-04-30T15:25:18.425Z,43.96
2019-04-30T15:30:21.467Z,42.67
2019-04-30T15:35:20.954Z,43.21
2019-04-30T15:40:21.632Z,42.73
2019-04-30T15:45:22.496Z,43.06
2019-04-30T15:50:23.141Z,43.50
2019-04-30T15:55:23.791Z,43.52
2019-04-30T16:00:24.342Z,43.64
2019-04-30T16:05:24.957Z,43.51
2019-04-30T16:10:25.662Z,41.70
2019-04-30T16:15:26.283Z,42.78
2019-04-30T16:20:29.901Z,43.25
2019-04-30T16:25:30.350Z,43.57
2019-04-30T16:30:28.987Z,44.24
2019-04-30T16:35:29.652Z,43.63
2019-04-30T16:40:30.133Z,43.09
2019-04-30T16:45:30.569Z,43.24
2019-04-30T16:50:31.073Z,43.56
2019-04-30T16:55:31.671Z,43.55
2019-04-30T17:00:32.092Z,43.52
2019-04-30T17:05:32.487Z,43.62
2019-04-30T17:10:32.998Z,44.05
2019-04-30T17:15:33.661Z,43.79
2019-04-30T17:20:34.328Z,44.28
2019-04-30T17:25:35.066Z,44.27
2019-04-30T17:30:35.895Z,44.25
2019-04-30T17:35:36.551Z,44.36
2019-04-30T17:40:38.864Z,44.21
2019-04-30T17:45:39.175Z,44.55
2019-04-30T17:50:39.511Z,44.41
2019-04-30T17:55:39.167Z,44.44
2019-04-30T18:00:39.768Z,44.58
2019-04-30T18:05:40.219Z,44.60
2019-04-30T18:10:40.681Z,44.91
2019-04-30T18:15:41.101Z,45.60
2019-04-30T18:20:41.588Z,45.08
2019-04-30T18:25:42.016Z,45.21
